createdAt,value
2019-05-07T00:00:43.824Z,2.50
2019-05-07T00:01:42.407Z,2.10
2019-05-07T00:02:42.793Z,2.10
2019-05-07T00:03:42.341Z,1.90
2019-05-07T00:04:42.919Z,2.30
2019-05-07T00:05:42.886Z,2.10
2019-05-07T00:06:43.463Z,2.10
2019-05-07T00:07:42.566Z,2.10
2019-05-07T00:08:44.673Z,2.70
2019-05-07T00:09:42.991Z,2.40
2019-05-07T00:10:42.594Z,2.40
2019-05-07T00:11:42.688Z,2.50
2019-05-07T00:12:43.103Z,2.20
2019-05-07T00:13:44.359Z,2.20
2019-05-07T00:14:42.952Z,2.60
2019-05-07T00:15:43.107Z,2.30
2019-05-07T00:16:42.391Z,2.70
2019-05-07T00:17:42.897Z,3.20
2019-05-07T00:18:42.941Z,2.80
2019-05-07T00:19:43.191Z,2.50
2019-05-07T00:20:42.473Z,2.90
2019-05-07T00:21:42.416Z,2.20
2019-05-07T00:22:42.048Z,2.70
2019-05-07T00:23:43.289Z,2.80
2019-05-07T00:24:42.718Z,2.70
2019-05-07T00:25:42.326Z,2.70
2019-05-07T00:26:42.972Z,2.90
2019-05-07T00:27:42.673Z,3.20
2019-05-07T00:28:43.167Z,3.90
2019-05-07T00:29:42.948Z,4.10
2019-05-07T00:30:42.562Z,3.80
2019-05-07T00:31:42.231Z,4.20
2019-05-07T00:32:42.451Z,4.90
2019-05-07T00:33:43.296Z,4.80
2019-05-07T00:34:42.446Z,4.70
2019-05-07T00:35:42.877Z,4.40
2019-05-07T00:36:42.149Z,4.80
2019-05-07T00:37:43.162Z,4.80
2019-05-07T00:38:42.753Z,4.50
2019-05-07T00:39:42.392Z,4.50
2019-05-07T00:40:42.543Z,4.80
2019-05-07T00:41:42.691Z,5.10
2019-05-07T00:42:42.172Z,4.70
2019-05-07T00:43:42.902Z,4.70
2019-05-07T00:44:42.221Z,4.70
2019-05-07T00:45:42.205Z,4.90
2019-05-07T00:46:42.719Z,4.80
2019-05-07T00:47:42.587Z,5.50
2019-05-07T00:48:42.349Z,4.80
2019-05-07T00:49:42.578Z,4.90
2019-05-07T00:50:42.109Z,4.70
2019-05-07T00:51:42.444Z,5.00
2019-05-07T00:52:42.952Z,5.20
2019-05-07T00:53:42.365Z,5.30
2019-05-07T00:54:42.241Z,5.20
2019-05-07T00:55:42.306Z,5.40
2019-05-07T00:56:42.915Z,4.90
2019-05-07T00:57:42.888Z,5.40
2019-05-07T00:58:42.809Z,5.10
2019-05-07T00:59:42.946Z,5.70
2019-05-07T01:00:42.172Z,5.80
2019-05-07T01:01:43.247Z,5.30
2019-05-07T01:02:43.090Z,5.60
2019-05-07T01:03:42.404Z,6.10
2019-05-07T01:04:42.300Z,5.70
2019-05-07T01:05:43.247Z,5.40
2019-05-07T01:06:42.349Z,5.60
2019-05-07T01:07:42.036Z,6.10
2019-05-07T01:08:43.060Z,5.70
2019-05-07T01:09:43.055Z,5.90
2019-05-07T01:10:42.061Z,5.50
2019-05-07T01:11:42.866Z,6.90
2019-05-07T01:12:42.355Z,6.30
2019-05-07T01:13:43.162Z,6.50
2019-05-07T01:14:42.074Z,6.30
2019-05-07T01:15:43.039Z,6.40
2019-05-07T01:16:42.102Z,6.20
2019-05-07T01:17:42.549Z,6.30
2019-05-07T01:18:42.062Z,6.60
2019-05-07T01:19:42.345Z,6.10
2019-05-07T01:20:42.296Z,6.70
2019-05-07T01:21:43.224Z,6.70
2019-05-07T01:22:42.419Z,6.50
2019-05-07T01:23:42.782Z,6.40
2019-05-07T01:24:42.918Z,7.00
2019-05-07T01:25:42.995Z,6.30
2019-05-07T01:26:42.585Z,7.30
2019-05-07T01:27:42.722Z,6.80
2019-05-07T01:28:42.123Z,6.60
2019-05-07T01:29:43.050Z,6.80
2019-05-07T01:30:43.217Z,7.10
2019-05-07T01:31:43.091Z,7.10
2019-05-07T01:32:42.527Z,7.00
2019-05-07T01:33:42.385Z,6.90
2019-05-07T01:34:42.958Z,7.50
2019-05-07T01:35:42.336Z,7.60
2019-05-07T01:36:42.710Z,6.80
2019-05-07T01:37:42.200Z,7.50
2019-05-07T01:38:42.668Z,6.80
2019-05-07T01:39:42.168Z,6.70
2019-05-07T01:40:42.779Z,7.00
2019-05-07T01:41:41.958Z,6.90
2019-05-07T01:42:42.374Z,7.30
2019-05-07T01:43:42.925Z,7.70
2019-05-07T01:44:42.036Z,6.80
2019-05-07T01:45:46.412Z,7.50
2019-05-07T01:46:42.285Z,7.30
2019-05-07T01:47:42.505Z,7.20
2019-05-07T01:48:42.982Z,7.30
2019-05-07T01:49:42.233Z,7.50
2019-05-07T01:50:42.913Z,7.30
2019-05-07T01:51:42.258Z,6.80
2019-05-07T01:52:42.733Z,7.20
2019-05-07T01:53:43.009Z,7.20
2019-05-07T01:54:42.570Z,7.40
2019-05-07T01:55:42.836Z,8.00
2019-05-07T01:56:42.779Z,8.20
2019-05-07T01:57:42.145Z,7.80
2019-05-07T01:58:42.502Z,8.20
2019-05-07T01:59:42.729Z,7.90
2019-05-07T02:00:42.378Z,8.10
2019-05-07T02:01:42.879Z,8.20
2019-05-07T02:02:42.555Z,8.50
2019-05-07T02:03:42.019Z,8.90
2019-05-07T02:04:42.731Z,8.30
2019-05-07T02:05:42.408Z,9.00
2019-05-07T02:06:42.826Z,9.20
2019-05-07T02:07:42.788Z,9.20
2019-05-07T02:08:42.327Z,9.40
2019-05-07T02:09:42.473Z,9.60
2019-05-07T02:10:42.750Z,9.70
2019-05-07T02:11:42.243Z,10.40
2019-05-07T02:12:42.550Z,9.70
2019-05-07T02:13:42.049Z,10.80
2019-05-07T02:14:42.236Z,10.60
2019-05-07T02:15:42.716Z,10.20
2019-05-07T02:16:41.877Z,11.00
2019-05-07T02:17:42.850Z,10.90
2019-05-07T02:18:42.430Z,11.70
2019-05-07T02:19:42.518Z,11.50
2019-05-07T02:20:42.591Z,11.20
2019-05-07T02:21:42.344Z,12.20
2019-05-07T02:22:42.689Z,11.20
2019-05-07T02:23:42.560Z,11.70
2019-05-07T02:24:43.249Z,11.40
2019-05-07T02:25:41.972Z,11.70
2019-05-07T02:26:42.539Z,11.40
2019-05-07T02:27:42.080Z,12.20
2019-05-07T02:28:42.572Z,12.60
2019-05-07T02:29:42.929Z,11.30
2019-05-07T02:30:44.107Z,11.50
2019-05-07T02:31:43.792Z,11.00
2019-05-07T02:32:43.337Z,11.00
2019-05-07T02:33:43.365Z,11.20
2019-05-07T02:34:43.770Z,12.10
2019-05-07T02:35:43.561Z,10.90
2019-05-07T02:36:43.362Z,11.50
2019-05-07T02:37:48.388Z,11.20
2019-05-07T02:38:44.236Z,11.20
2019-05-07T02:39:44.004Z,11.80
2019-05-07T02:40:43.037Z,11.70
2019-05-07T02:41:43.743Z,11.40
2019-05-07T02:42:44.065Z,11.40
2019-05-07T02:43:43.011Z,11.50
2019-05-07T02:44:43.611Z,12.20
2019-05-07T02:45:43.765Z,11.90
2019-05-07T02:46:43.129Z,12.20
2019-05-07T02:47:43.522Z,12.00
2019-05-07T02:48:42.852Z,11.70
2019-05-07T02:49:43.598Z,9.90
2019-05-07T02:50:43.488Z,10.40
2019-05-07T02:51:43.444Z,10.50
2019-05-07T02:52:43.382Z,10.00
2019-05-07T02:53:43.008Z,9.90
2019-05-07T02:54:43.541Z,9.50
2019-05-07T02:55:43.297Z,9.50
2019-05-07T02:56:42.981Z,9.80
2019-05-07T02:57:43.192Z,8.90
2019-05-07T02:58:43.187Z,8.60
2019-05-07T02:59:40.354Z,9.30
2019-05-07T03:00:43.101Z,9.30
2019-05-07T03:01:43.036Z,9.50
2019-05-07T03:02:43.557Z,9.40
2019-05-07T03:03:40.312Z,10.40
2019-05-07T03:04:43.312Z,10.30
2019-05-07T03:05:42.855Z,10.50
2019-05-07T03:06:40.272Z,10.70
2019-05-07T03:07:42.781Z,11.30
2019-05-07T03:08:40.258Z,11.00
2019-05-07T03:09:43.186Z,10.80
2019-05-07T03:10:43.151Z,11.00
2019-05-07T03:11:43.249Z,12.10
2019-05-07T03:12:42.819Z,11.60
2019-05-07T03:13:42.977Z,11.20
2019-05-07T03:14:40.196Z,10.90
2019-05-07T03:15:43.199Z,11.00
2019-05-07T03:16:47.456Z,11.50
2019-05-07T03:17:42.932Z,10.50
2019-05-07T03:18:43.515Z,10.70
2019-05-07T03:19:42.782Z,10.60
2019-05-07T03:20:42.540Z,10.70
2019-05-07T03:21:40.113Z,10.10
2019-05-07T03:22:42.640Z,9.90
2019-05-07T03:23:42.834Z,9.90
2019-05-07T03:24:43.150Z,9.70
2019-05-07T03:25:43.028Z,9.90
2019-05-07T03:26:43.344Z,9.90
2019-05-07T03:27:42.921Z,10.20
2019-05-07T03:28:42.301Z,10.30
2019-05-07T03:29:40.028Z,10.20
2019-05-07T03:30:44.955Z,10.90
2019-05-07T03:31:46.102Z,12.10
2019-05-07T03:32:46.851Z,12.60
2019-05-07T03:33:46.564Z,12.80
2019-05-07T03:34:46.229Z,11.50
2019-05-07T03:35:45.827Z,11.50
2019-05-07T03:36:46.776Z,10.90
2019-05-07T03:37:43.419Z,11.80
2019-05-07T03:38:39.955Z,11.60
2019-05-07T03:39:42.952Z,11.50
2019-05-07T03:40:39.917Z,11.00
2019-05-07T03:41:43.080Z,11.70
2019-05-07T03:42:39.883Z,10.80
2019-05-07T03:43:39.874Z,10.50
2019-05-07T03:44:39.899Z,11.40
2019-05-07T03:45:42.956Z,10.90
2019-05-07T03:46:54.517Z,10.80
2019-05-07T03:47:43.636Z,10.50
2019-05-07T03:48:39.822Z,10.30
2019-05-07T03:49:42.796Z,10.20
2019-05-07T03:50:42.852Z,9.90
2019-05-07T03:51:39.797Z,9.80
2019-05-07T03:52:42.627Z,10.70
2019-05-07T03:53:43.163Z,9.80
2019-05-07T03:54:42.848Z,10.70
2019-05-07T03:55:39.746Z,10.60
2019-05-07T03:56:39.750Z,10.50
2019-05-07T03:57:39.726Z,10.30
2019-05-07T03:58:39.726Z,10.30
2019-05-07T03:59:39.734Z,10.90
2019-05-07T04:00:39.694Z,10.60
2019-05-07T04:01:42.902Z,10.40
2019-05-07T04:02:39.696Z,11.00
2019-05-07T04:03:39.664Z,10.90
2019-05-07T04:04:39.664Z,10.20
2019-05-07T04:05:39.653Z,9.50
2019-05-07T04:06:43.140Z,9.40
2019-05-07T04:07:39.628Z,9.10
2019-05-07T04:08:42.829Z,9.20
2019-05-07T04:09:39.610Z,8.90
2019-05-07T04:10:39.606Z,9.30
2019-05-07T04:11:39.592Z,9.10
2019-05-07T04:12:39.581Z,9.30
2019-05-07T04:13:39.606Z,9.50
2019-05-07T04:14:39.548Z,9.20
2019-05-07T04:15:39.551Z,9.00
2019-05-07T04:16:39.566Z,8.70
2019-05-07T04:17:39.517Z,8.90
2019-05-07T04:18:39.528Z,9.50
2019-05-07T04:19:39.496Z,9.80
2019-05-07T04:20:43.160Z,10.40
2019-05-07T04:21:39.466Z,11.40
2019-05-07T04:22:42.849Z,11.90
2019-05-07T04:23:39.470Z,13.00
2019-05-07T04:24:42.593Z,13.80
2019-05-07T04:25:39.438Z,14.20
2019-05-07T04:26:39.422Z,13.80
2019-05-07T04:27:43.380Z,14.60
2019-05-07T04:28:43.391Z,13.70
2019-05-07T04:29:39.382Z,14.80
2019-05-07T04:30:39.384Z,14.40
2019-05-07T04:31:39.388Z,14.90
2019-05-07T04:32:39.361Z,14.10
2019-05-07T04:33:39.348Z,13.40
2019-05-07T04:34:39.368Z,11.60
2019-05-07T04:35:39.318Z,10.80
2019-05-07T04:36:39.309Z,11.30
2019-05-07T04:37:39.317Z,10.80
2019-05-07T04:38:39.287Z,10.10
2019-05-07T04:39:39.286Z,9.90
2019-05-07T04:40:39.266Z,9.20
2019-05-07T04:41:39.267Z,9.80
2019-05-07T04:42:42.617Z,9.00
2019-05-07T04:43:39.246Z,9.90
2019-05-07T04:44:39.245Z,9.30
2019-05-07T04:45:39.215Z,9.60
2019-05-07T04:46:43.720Z,9.20
2019-05-07T04:47:44.205Z,9.40
2019-05-07T04:48:43.544Z,9.50
2019-05-07T04:49:39.183Z,9.60
2019-05-07T04:50:43.614Z,8.30
2019-05-07T04:51:43.116Z,8.70
2019-05-07T04:52:39.140Z,7.80
2019-05-07T04:53:39.143Z,8.30
2019-05-07T04:54:39.132Z,7.90
2019-05-07T04:55:39.110Z,8.20
2019-05-07T04:56:39.099Z,7.90
2019-05-07T04:57:39.100Z,7.30
2019-05-07T04:58:39.079Z,7.10
2019-05-07T04:59:39.087Z,7.00
2019-05-07T05:00:39.055Z,6.40
2019-05-07T05:01:39.038Z,7.20
2019-05-07T05:02:39.060Z,6.30
2019-05-07T05:03:39.502Z,6.20
2019-05-07T05:04:39.017Z,7.00
2019-05-07T05:05:39.015Z,6.80
2019-05-07T05:06:38.998Z,6.90
2019-05-07T05:07:38.974Z,7.30
2019-05-07T05:08:38.975Z,7.00
2019-05-07T05:09:38.954Z,7.10
2019-05-07T05:10:38.945Z,7.00
2019-05-07T05:11:38.949Z,7.30
2019-05-07T05:12:38.931Z,7.10
2019-05-07T05:13:38.912Z,6.50
2019-05-07T05:14:38.903Z,7.50
2019-05-07T05:15:38.891Z,7.10
2019-05-07T05:16:38.891Z,7.40
2019-05-07T05:17:49.608Z,6.60
2019-05-07T05:18:41.927Z,6.50
2019-05-07T05:19:38.849Z,6.80
2019-05-07T05:20:38.840Z,6.60
2019-05-07T05:21:38.829Z,6.60
2019-05-07T05:22:38.829Z,6.50
2019-05-07T05:23:38.818Z,7.40
2019-05-07T05:24:38.801Z,7.00
2019-05-07T05:25:38.787Z,6.90
2019-05-07T05:26:38.776Z,6.90
2019-05-07T05:27:38.785Z,6.80
2019-05-07T05:28:38.755Z,6.80
2019-05-07T05:29:38.983Z,6.60
2019-05-07T05:30:38.735Z,6.90
2019-05-07T05:31:38.715Z,7.30
2019-05-07T05:32:38.715Z,7.30
2019-05-07T05:33:38.712Z,6.70
2019-05-07T05:34:38.693Z,7.10
2019-05-07T05:35:38.673Z,6.70
2019-05-07T05:36:38.665Z,7.00
2019-05-07T05:37:38.659Z,6.70
2019-05-07T05:38:38.705Z,6.70
2019-05-07T05:39:38.640Z,6.40
2019-05-07T05:40:38.622Z,7.20
2019-05-07T05:41:38.640Z,7.40
2019-05-07T05:42:39.241Z,6.50
2019-05-07T05:43:38.593Z,6.60
2019-05-07T05:44:38.581Z,6.70
2019-05-07T05:45:38.580Z,7.00
2019-05-07T05:46:38.587Z,7.20
2019-05-07T05:47:38.548Z,6.60
2019-05-07T05:48:38.538Z,6.50
2019-05-07T05:49:38.538Z,6.50
2019-05-07T05:50:38.517Z,6.80
2019-05-07T05:51:38.528Z,6.40
2019-05-07T05:52:38.513Z,6.30
2019-05-07T05:53:38.486Z,6.90
2019-05-07T05:54:38.476Z,6.20
2019-05-07T05:55:38.463Z,6.40
2019-05-07T05:56:38.459Z,6.30
2019-05-07T05:57:38.448Z,6.80
2019-05-07T05:58:38.443Z,6.50
2019-05-07T05:59:49.201Z,6.80
2019-05-07T06:00:39.404Z,6.60
2019-05-07T06:01:38.397Z,6.10
2019-05-07T06:02:38.393Z,6.30
2019-05-07T06:03:38.393Z,5.90
2019-05-07T06:04:38.377Z,6.30
2019-05-07T06:05:38.353Z,6.20
2019-05-07T06:06:38.353Z,6.00
2019-05-07T06:07:38.334Z,6.40
2019-05-07T06:08:38.331Z,6.20
2019-05-07T06:09:38.314Z,6.50
2019-05-07T06:10:38.300Z,6.60
2019-05-07T06:11:38.302Z,6.60
2019-05-07T06:12:38.309Z,6.50
2019-05-07T06:13:38.271Z,6.40
2019-05-07T06:14:39.600Z,6.50
2019-05-07T06:15:38.251Z,6.70
2019-05-07T06:16:38.294Z,6.40
2019-05-07T06:17:38.240Z,7.00
2019-05-07T06:18:38.240Z,6.60
2019-05-07T06:19:38.208Z,6.80
2019-05-07T06:20:38.207Z,7.00
2019-05-07T06:21:38.232Z,7.40
2019-05-07T06:22:38.176Z,7.10
2019-05-07T06:23:38.171Z,7.20
2019-05-07T06:24:38.155Z,7.60
2019-05-07T06:25:38.136Z,7.50
2019-05-07T06:26:38.143Z,7.00
2019-05-07T06:27:38.124Z,7.00
2019-05-07T06:28:38.114Z,7.10
2019-05-07T06:29:38.105Z,6.60
2019-05-07T06:30:38.093Z,7.10
2019-05-07T06:31:38.092Z,6.90
2019-05-07T06:32:38.062Z,6.80
2019-05-07T06:33:38.054Z,7.60
2019-05-07T06:34:38.042Z,7.00
2019-05-07T06:35:38.062Z,8.10
2019-05-07T06:36:38.033Z,7.70
2019-05-07T06:37:38.021Z,7.30
2019-05-07T06:38:38.022Z,7.00
2019-05-07T06:39:37.990Z,7.20
2019-05-07T06:40:37.992Z,6.60
2019-05-07T06:41:37.981Z,7.40
2019-05-07T06:42:37.962Z,7.10
2019-05-07T06:43:37.958Z,7.10
2019-05-07T06:44:37.939Z,7.40
2019-05-07T06:45:37.926Z,8.00
2019-05-07T06:46:38.853Z,7.70
2019-05-07T06:47:37.907Z,7.60
2019-05-07T06:48:42.819Z,8.10
2019-05-07T06:49:38.878Z,8.10
2019-05-07T06:50:37.894Z,8.60
2019-05-07T06:51:37.863Z,8.60
2019-05-07T06:52:37.855Z,8.50
2019-05-07T06:53:37.836Z,9.00
2019-05-07T06:54:37.837Z,8.70
2019-05-07T06:55:37.843Z,8.70
2019-05-07T06:56:37.811Z,9.10
2019-05-07T06:57:37.814Z,8.70
2019-05-07T06:58:37.807Z,9.30
2019-05-07T06:59:37.795Z,8.90
2019-05-07T07:00:37.761Z,8.70
2019-05-07T07:01:37.762Z,8.40
2019-05-07T07:02:37.751Z,8.30
2019-05-07T07:03:37.734Z,7.60
2019-05-07T07:04:37.731Z,7.40
2019-05-07T07:05:37.729Z,7.60
2019-05-07T07:06:37.709Z,7.60
2019-05-07T07:07:37.775Z,8.00
2019-05-07T07:08:37.679Z,8.70
2019-05-07T07:09:37.678Z,8.40
2019-05-07T07:10:37.666Z,8.40
2019-05-07T07:11:37.711Z,7.70
2019-05-07T07:12:37.660Z,7.90
2019-05-07T07:13:37.627Z,7.20
2019-05-07T07:14:37.637Z,7.70
2019-05-07T07:15:37.612Z,7.30
2019-05-07T07:16:37.621Z,6.70
2019-05-07T07:17:37.593Z,7.70
2019-05-07T07:18:48.422Z,8.00
2019-05-07T07:19:38.597Z,7.70
2019-05-07T07:20:37.588Z,6.90
2019-05-07T07:21:37.543Z,7.00
2019-05-07T07:22:37.533Z,6.60
2019-05-07T07:23:37.522Z,6.70
2019-05-07T07:24:37.516Z,6.40
2019-05-07T07:25:37.526Z,6.90
2019-05-07T07:26:37.491Z,6.60
2019-05-07T07:27:37.484Z,6.60
2019-05-07T07:28:37.471Z,6.80
2019-05-07T07:29:37.461Z,6.60
2019-05-07T07:30:37.482Z,5.90
2019-05-07T07:31:37.444Z,6.20
2019-05-07T07:32:37.433Z,6.90
2019-05-07T07:33:37.447Z,6.30
2019-05-07T07:34:37.412Z,6.50
2019-05-07T07:35:37.411Z,5.50
2019-05-07T07:36:38.217Z,6.10
2019-05-07T07:37:37.378Z,5.20
2019-05-07T07:38:37.376Z,5.60
2019-05-07T07:39:37.346Z,6.00
2019-05-07T07:40:37.346Z,5.30
2019-05-07T07:41:37.356Z,5.90
2019-05-07T07:42:37.325Z,5.90
2019-05-07T07:43:37.315Z,6.40
2019-05-07T07:44:37.316Z,6.00
2019-05-07T07:45:37.314Z,6.00
2019-05-07T07:46:37.304Z,5.20
2019-05-07T07:47:37.274Z,5.80
2019-05-07T07:48:37.295Z,5.30
2019-05-07T07:49:37.254Z,5.40
2019-05-07T07:50:37.454Z,5.60
2019-05-07T07:51:41.774Z,5.70
2019-05-07T07:52:38.965Z,5.20
2019-05-07T07:53:37.213Z,6.50
2019-05-07T07:54:37.203Z,5.70
2019-05-07T07:55:37.192Z,5.10
2019-05-07T07:56:49.142Z,5.60
2019-05-07T07:57:38.164Z,5.70
2019-05-07T07:58:37.169Z,5.80
2019-05-07T07:59:37.151Z,5.80
2019-05-07T08:00:37.150Z,5.90
2019-05-07T08:01:37.139Z,5.50
2019-05-07T08:02:37.125Z,5.70
2019-05-07T08:03:37.107Z,6.10
2019-05-07T08:04:37.111Z,6.00
2019-05-07T08:05:37.076Z,5.90
2019-05-07T08:06:37.085Z,6.20
2019-05-07T08:07:37.065Z,6.20
2019-05-07T08:08:37.051Z,6.80
2019-05-07T08:09:37.035Z,6.70
2019-05-07T08:10:37.037Z,6.60
2019-05-07T08:11:37.015Z,6.70
2019-05-07T08:12:37.006Z,6.30
2019-05-07T08:13:37.002Z,6.50
2019-05-07T08:14:36.985Z,6.20
2019-05-07T08:15:36.972Z,6.30
2019-05-07T08:16:36.965Z,6.20
2019-05-07T08:17:36.971Z,6.00
2019-05-07T08:18:36.957Z,6.20
2019-05-07T08:19:36.951Z,6.70
2019-05-07T08:20:36.920Z,6.50
2019-05-07T08:21:36.910Z,6.50
2019-05-07T08:22:36.924Z,6.20
2019-05-07T08:23:36.890Z,6.90
2019-05-07T08:24:36.869Z,6.80
2019-05-07T08:25:36.868Z,7.20
2019-05-07T08:26:36.849Z,6.70
2019-05-07T08:27:36.868Z,7.00
2019-05-07T08:28:36.829Z,7.00
2019-05-07T08:29:36.825Z,7.10
2019-05-07T08:30:36.815Z,6.50
2019-05-07T08:31:36.801Z,7.10
2019-05-07T08:32:36.788Z,6.90
2019-05-07T08:33:36.786Z,7.10
2019-05-07T08:34:36.787Z,6.80
2019-05-07T08:35:36.756Z,7.70
2019-05-07T08:36:36.756Z,7.60
2019-05-07T08:37:36.735Z,8.10
2019-05-07T08:38:37.343Z,7.60
2019-05-07T08:39:36.725Z,7.30
2019-05-07T08:40:36.728Z,8.10
2019-05-07T08:41:36.692Z,7.90
2019-05-07T08:42:36.684Z,8.00
2019-05-07T08:43:36.673Z,8.70
2019-05-07T08:44:36.680Z,8.10
2019-05-07T08:45:36.835Z,8.70
2019-05-07T08:46:36.657Z,8.70
2019-05-07T08:47:36.621Z,8.50
2019-05-07T08:48:36.631Z,8.90
2019-05-07T08:49:39.846Z,8.90
2019-05-07T08:50:36.599Z,9.20
2019-05-07T08:51:36.590Z,9.30
2019-05-07T08:52:36.569Z,9.00
2019-05-07T08:53:36.579Z,8.60
2019-05-07T08:54:36.549Z,8.50
2019-05-07T08:55:36.549Z,9.40
2019-05-07T08:56:36.528Z,9.10
2019-05-07T08:57:36.519Z,9.10
2019-05-07T08:58:36.518Z,9.10
2019-05-07T08:59:36.507Z,9.60
2019-05-07T09:00:36.567Z,10.10
2019-05-07T09:01:36.476Z,10.10
2019-05-07T09:02:36.466Z,8.80
2019-05-07T09:03:36.467Z,9.90
2019-05-07T09:04:36.466Z,10.10
2019-05-07T09:05:36.438Z,9.70
2019-05-07T09:06:36.416Z,10.40
2019-05-07T09:07:36.414Z,10.30
2019-05-07T09:08:36.399Z,10.40
2019-05-07T09:09:36.408Z,10.40
2019-05-07T09:10:36.387Z,10.30
2019-05-07T09:11:36.366Z,10.20
2019-05-07T09:12:36.354Z,11.50
2019-05-07T09:13:36.347Z,10.90
2019-05-07T09:14:36.353Z,10.60
2019-05-07T09:15:36.334Z,11.40
2019-05-07T09:16:36.323Z,11.40
2019-05-07T09:17:36.303Z,11.30
2019-05-07T09:18:36.303Z,11.20
2019-05-07T09:19:47.280Z,11.70
2019-05-07T09:20:37.302Z,11.70
2019-05-07T09:21:36.285Z,10.90
2019-05-07T09:22:36.261Z,11.70
2019-05-07T09:23:36.241Z,11.70
2019-05-07T09:24:36.231Z,12.30
2019-05-07T09:25:36.255Z,12.10
2019-05-07T09:26:36.214Z,12.50
2019-05-07T09:27:36.211Z,12.40
2019-05-07T09:28:36.190Z,13.20
2019-05-07T09:29:36.238Z,13.20
2019-05-07T09:30:36.186Z,13.40
2019-05-07T09:31:36.162Z,12.90
2019-05-07T09:32:36.149Z,13.40
2019-05-07T09:33:36.140Z,12.90
2019-05-07T09:34:36.128Z,14.20
2019-05-07T09:35:36.138Z,14.80
2019-05-07T09:36:36.130Z,14.20
2019-05-07T09:37:36.118Z,13.90
2019-05-07T09:38:36.096Z,14.00
2019-05-07T09:39:36.087Z,14.60
2019-05-07T09:40:36.066Z,15.00
2019-05-07T09:41:36.105Z,15.00
2019-05-07T09:42:36.056Z,15.00
2019-05-07T09:43:36.045Z,14.90
2019-05-07T09:44:36.023Z,14.10
2019-05-07T09:45:36.026Z,15.00
2019-05-07T09:46:36.019Z,15.20
2019-05-07T09:47:35.983Z,13.60
2019-05-07T09:48:36.060Z,14.20
2019-05-07T09:49:35.963Z,14.40
2019-05-07T09:50:35.955Z,14.50
2019-05-07T09:51:35.952Z,15.30
2019-05-07T09:52:35.932Z,14.70
2019-05-07T09:53:35.952Z,14.30
2019-05-07T09:54:35.911Z,15.00
2019-05-07T09:55:35.900Z,14.90
2019-05-07T09:56:35.912Z,14.80
2019-05-07T09:57:35.881Z,15.50
2019-05-07T09:58:39.045Z,15.90
2019-05-07T09:59:35.877Z,14.60
2019-05-07T10:00:35.840Z,15.60
2019-05-07T10:01:35.849Z,14.30
2019-05-07T10:02:35.839Z,14.10
2019-05-07T10:03:35.873Z,13.70
2019-05-07T10:04:35.817Z,14.60
2019-05-07T10:05:35.817Z,14.00
2019-05-07T10:06:35.777Z,14.10
2019-05-07T10:07:35.778Z,14.90
2019-05-07T10:08:35.766Z,15.70
2019-05-07T10:09:35.879Z,16.20
2019-05-07T10:10:35.769Z,15.30
2019-05-07T10:11:35.727Z,16.30
2019-05-07T10:12:36.431Z,16.40
2019-05-07T10:13:35.706Z,15.10
2019-05-07T10:14:35.774Z,15.90
2019-05-07T10:15:35.712Z,16.50
2019-05-07T10:16:35.693Z,15.60
2019-05-07T10:17:35.664Z,16.50
2019-05-07T10:18:35.663Z,15.70
2019-05-07T10:19:35.664Z,15.30
2019-05-07T10:20:35.640Z,15.30
2019-05-07T10:21:35.621Z,16.10
2019-05-07T10:22:35.641Z,15.80
2019-05-07T10:23:35.602Z,14.70
2019-05-07T10:24:35.592Z,15.40
2019-05-07T10:25:35.601Z,15.60
2019-05-07T10:26:35.569Z,15.80
2019-05-07T10:27:35.589Z,16.00
2019-05-07T10:28:35.539Z,16.00
2019-05-07T10:29:35.537Z,16.40
2019-05-07T10:30:35.533Z,15.00
2019-05-07T10:31:35.518Z,15.20
2019-05-07T10:32:35.498Z,13.60
2019-05-07T10:33:35.507Z,13.70
2019-05-07T10:34:35.479Z,13.70
2019-05-07T10:35:35.478Z,14.00
2019-05-07T10:36:35.470Z,14.40
2019-05-07T10:37:35.446Z,13.90
2019-05-07T10:38:35.435Z,13.50
2019-05-07T10:39:35.418Z,14.30
2019-05-07T10:40:35.425Z,14.30
2019-05-07T10:41:35.404Z,13.90
2019-05-07T10:42:35.394Z,13.40
2019-05-07T10:43:35.385Z,14.30
2019-05-07T10:44:35.376Z,13.90
2019-05-07T10:45:35.381Z,15.20
2019-05-07T10:46:35.344Z,14.60
2019-05-07T10:47:35.332Z,15.60
2019-05-07T10:48:35.354Z,15.30
2019-05-07T10:49:35.323Z,14.40
2019-05-07T10:50:39.176Z,14.60
2019-05-07T10:51:35.291Z,14.40
2019-05-07T10:52:35.281Z,14.40
2019-05-07T10:53:35.271Z,14.30
2019-05-07T10:54:35.261Z,13.40
2019-05-07T10:55:35.268Z,14.00
2019-05-07T10:56:35.239Z,13.40
2019-05-07T10:57:35.249Z,13.00
2019-05-07T10:58:35.219Z,13.20
2019-05-07T10:59:35.222Z,12.50
2019-05-07T11:00:35.209Z,13.60
2019-05-07T11:01:35.194Z,13.10
2019-05-07T11:02:35.177Z,13.40
2019-05-07T11:03:35.197Z,13.70
2019-05-07T11:04:42.633Z,13.50
2019-05-07T11:05:36.146Z,13.40
2019-05-07T11:06:35.196Z,13.70
2019-05-07T11:07:35.136Z,13.70
2019-05-07T11:08:35.106Z,13.50
2019-05-07T11:09:35.096Z,14.10
2019-05-07T11:10:35.088Z,14.70
2019-05-07T11:11:35.074Z,13.70
2019-05-07T11:12:35.157Z,14.90
2019-05-07T11:13:35.054Z,14.40
2019-05-07T11:14:35.043Z,14.60
2019-05-07T11:15:35.032Z,15.00
2019-05-07T11:16:35.044Z,14.70
2019-05-07T11:17:35.015Z,15.60
2019-05-07T11:18:35.008Z,14.90
2019-05-07T11:19:34.991Z,15.10
2019-05-07T11:20:46.553Z,14.00
2019-05-07T11:21:36.038Z,14.70
2019-05-07T11:22:34.962Z,14.80
2019-05-07T11:23:34.947Z,14.70
2019-05-07T11:24:34.940Z,13.90
2019-05-07T11:25:34.930Z,11.90
2019-05-07T11:26:34.921Z,12.20
2019-05-07T11:27:34.910Z,11.80
2019-05-07T11:28:34.976Z,11.20
2019-05-07T11:29:36.632Z,11.10
2019-05-07T11:30:34.897Z,11.60
2019-05-07T11:31:34.866Z,12.20
2019-05-07T11:32:34.857Z,11.90
2019-05-07T11:33:34.865Z,12.30
2019-05-07T11:34:34.827Z,14.00
2019-05-07T11:35:34.834Z,14.10
2019-05-07T11:36:34.815Z,14.00
2019-05-07T11:37:34.814Z,14.30
2019-05-07T11:38:34.805Z,16.20
2019-05-07T11:39:34.787Z,12.60
2019-05-07T11:40:35.065Z,13.10
2019-05-07T11:41:34.766Z,13.60
2019-05-07T11:42:34.755Z,14.40
2019-05-07T11:43:34.733Z,14.30
2019-05-07T11:44:34.731Z,15.30
2019-05-07T11:45:34.733Z,14.60
2019-05-07T11:46:34.725Z,13.70
2019-05-07T11:47:34.696Z,13.80
2019-05-07T11:48:36.398Z,13.70
2019-05-07T11:49:34.681Z,13.60
2019-05-07T11:50:34.669Z,13.60
2019-05-07T11:51:34.649Z,13.60
2019-05-07T11:52:35.824Z,14.60
2019-05-07T11:53:34.631Z,15.50
2019-05-07T11:54:34.629Z,16.80
2019-05-07T11:55:34.624Z,15.20
2019-05-07T11:56:34.607Z,16.40
2019-05-07T11:57:34.579Z,16.20
2019-05-07T11:58:34.586Z,17.60
2019-05-07T11:59:34.586Z,16.80
2019-05-07T12:00:34.558Z,14.90
2019-05-07T12:01:43.974Z,17.30
2019-05-07T12:02:35.525Z,15.50
2019-05-07T12:03:34.537Z,17.50
2019-05-07T12:04:34.514Z,17.00
2019-05-07T12:05:34.495Z,15.60
2019-05-07T12:06:34.509Z,17.00
2019-05-07T12:07:34.516Z,16.80
2019-05-07T12:08:43.053Z,17.90
2019-05-07T12:09:35.462Z,16.90
2019-05-07T12:10:34.491Z,18.30
2019-05-07T12:11:34.430Z,17.20
2019-05-07T12:12:34.422Z,15.00
2019-05-07T12:13:34.412Z,14.60
2019-05-07T12:14:35.059Z,14.10
2019-05-07T12:15:34.402Z,16.00
2019-05-07T12:16:34.384Z,16.70
2019-05-07T12:17:34.370Z,15.00
2019-05-07T12:18:34.367Z,14.30
2019-05-07T12:19:34.346Z,15.10
2019-05-07T12:20:35.020Z,15.00
2019-05-07T12:21:34.337Z,14.40
2019-05-07T12:22:34.323Z,14.30
2019-05-07T12:23:34.336Z,14.50
2019-05-07T12:24:34.298Z,14.30
2019-05-07T12:25:34.308Z,14.30
2019-05-07T12:26:34.275Z,13.80
2019-05-07T12:27:34.266Z,14.60
2019-05-07T12:28:34.256Z,15.10
2019-05-07T12:29:34.255Z,14.20
2019-05-07T12:30:34.253Z,14.20
2019-05-07T12:31:34.233Z,15.40
2019-05-07T12:32:34.212Z,15.20
2019-05-07T12:33:34.210Z,15.20
2019-05-07T12:34:34.203Z,14.90
2019-05-07T12:35:34.191Z,15.70
2019-05-07T12:36:34.174Z,14.50
2019-05-07T12:37:34.170Z,15.30
2019-05-07T12:38:34.150Z,16.50
2019-05-07T12:39:34.139Z,17.20
2019-05-07T12:40:35.578Z,16.40
2019-05-07T12:41:34.483Z,16.40
2019-05-07T12:42:34.118Z,15.80
2019-05-07T12:43:34.097Z,14.60
2019-05-07T12:44:34.088Z,15.00
2019-05-07T12:45:34.079Z,15.10
2019-05-07T12:46:34.101Z,14.40
2019-05-07T12:47:34.047Z,14.40
2019-05-07T12:48:34.036Z,15.00
2019-05-07T12:49:34.026Z,14.90
2019-05-07T12:50:34.025Z,15.30
2019-05-07T12:51:37.388Z,17.50
2019-05-07T12:52:33.994Z,17.00
2019-05-07T12:53:33.995Z,15.90
2019-05-07T12:54:36.637Z,16.60
2019-05-07T12:55:33.995Z,15.20
2019-05-07T12:56:33.985Z,15.20
2019-05-07T12:57:33.955Z,14.90
2019-05-07T12:58:33.941Z,15.40
2019-05-07T12:59:33.944Z,15.50
2019-05-07T13:00:33.931Z,15.90
2019-05-07T13:01:33.904Z,16.20
2019-05-07T13:02:40.621Z,15.60
2019-05-07T13:03:34.884Z,16.10
2019-05-07T13:04:33.891Z,16.10
2019-05-07T13:05:33.869Z,16.50
2019-05-07T13:06:33.880Z,16.30